createdAt,value
2019-05-15T00:00:48.021Z,8.48
2019-05-15T00:03:19.781Z,3.50
2019-05-15T00:05:51.710Z,4.05
2019-05-15T00:08:22.776Z,3.80
2019-05-15T00:10:53.856Z,2.45
2019-05-15T00:13:25.430Z,4.92
2019-05-15T00:15:59.018Z,7.70
2019-05-15T00:18:30.387Z,5.35
2019-05-15T00:21:01.587Z,5.10
2019-05-15T00:23:33.355Z,4.53
2019-05-15T00:26:05.643Z,4.17
2019-05-15T00:28:38.818Z,3.50
2019-05-15T00:31:09.833Z,8.43
2019-05-15T00:33:41.237Z,3.75
2019-05-15T00:36:12.349Z,4.33
2019-05-15T00:38:44.063Z,5.47
2019-05-15T00:41:18.342Z,3.30
2019-05-15T00:43:49.541Z,3.42
2019-05-15T00:46:20.758Z,4.10
2019-05-15T00:48:51.922Z,6.00
2019-05-15T00:51:24.094Z,4.20
2019-05-15T00:53:55.494Z,6.33
2019-05-15T00:56:28.535Z,3.72
2019-05-15T00:58:59.617Z,2.63
2019-05-15T01:01:31.829Z,5.42
2019-05-15T01:04:03.938Z,5.73
2019-05-15T01:06:35.401Z,5.57
2019-05-15T01:09:08.337Z,9.43
2019-05-15T01:11:40.779Z,3.67
2019-05-15T01:14:12.425Z,4.30
2019-05-15T01:16:43.460Z,4.95
2019-05-15T01:19:15.111Z,2.30
2019-05-15T01:21:48.104Z,5.03
2019-05-15T01:24:19.448Z,3.10
2019-05-15T01:26:50.572Z,4.53
2019-05-15T01:29:36.482Z,5.17
2019-05-15T01:31:59.122Z,3.75
2019-05-15T01:34:29.895Z,5.17
2019-05-15T01:37:01.275Z,6.07
2019-05-15T01:39:32.451Z,10.10
2019-05-15T01:42:04.368Z,4.43
2019-05-15T01:44:36.308Z,2.83
2019-05-15T01:47:08.506Z,4.23
2019-05-15T01:49:40.147Z,5.40
2019-05-15T01:52:12.068Z,5.80
2019-05-15T01:54:43.230Z,2.50
2019-05-15T01:57:14.657Z,3.02
2019-05-15T01:59:54.788Z,5.13
2019-05-15T02:02:20.397Z,4.20
2019-05-15T02:04:51.817Z,3.72
2019-05-15T02:07:23.601Z,7.43
2019-05-15T02:09:54.788Z,5.50
2019-05-15T02:12:28.593Z,6.90
2019-05-15T02:14:59.186Z,4.37
2019-05-15T02:17:32.000Z,3.40
2019-05-15T02:20:04.053Z,2.93
2019-05-15T02:22:35.217Z,5.33
2019-05-15T02:25:08.613Z,2.27
2019-05-15T02:27:40.183Z,3.23
2019-05-15T02:30:22.406Z,7.13
2019-05-15T02:32:45.428Z,4.80
2019-05-15T02:35:18.578Z,2.63
2019-05-15T02:37:50.078Z,3.87
2019-05-15T02:40:22.035Z,3.97
2019-05-15T02:42:53.752Z,4.57
2019-05-15T02:45:25.274Z,5.53
2019-05-15T02:47:59.468Z,4.37
2019-05-15T02:50:29.417Z,2.93
2019-05-15T02:53:00.947Z,5.87
2019-05-15T02:55:32.022Z,2.60
2019-05-15T02:58:03.058Z,4.40
2019-05-15T03:00:43.906Z,3.17
2019-05-15T03:03:09.473Z,7.17
2019-05-15T03:05:41.242Z,3.70
2019-05-15T03:08:12.808Z,5.83
2019-05-15T03:10:44.023Z,2.33
2019-05-15T03:13:18.780Z,5.53
2019-05-15T03:15:49.281Z,3.93
2019-05-15T03:18:21.061Z,4.40
2019-05-15T03:20:52.436Z,5.17
2019-05-15T03:23:23.871Z,3.70
2019-05-15T03:25:55.469Z,4.67
2019-05-15T03:28:29.499Z,5.47
2019-05-15T03:31:26.245Z,2.67
2019-05-15T03:33:45.477Z,3.47
2019-05-15T03:36:14.279Z,3.50
2019-05-15T03:38:49.601Z,5.10
2019-05-15T03:41:19.711Z,3.90
2019-05-15T03:43:51.028Z,5.57
2019-05-15T03:46:22.079Z,6.03
2019-05-15T03:48:53.780Z,6.07
2019-05-15T03:51:24.998Z,6.70
2019-05-15T03:54:00.068Z,6.70
2019-05-15T03:56:29.749Z,3.63
2019-05-15T03:59:01.460Z,5.53
2019-05-15T04:01:38.797Z,5.33
2019-05-15T04:04:09.438Z,6.07
2019-05-15T04:06:39.667Z,5.43
2019-05-15T04:09:12.222Z,6.03
2019-05-15T04:11:43.808Z,3.33
2019-05-15T04:14:15.264Z,5.23
2019-05-15T04:16:49.535Z,2.80
2019-05-15T04:19:20.113Z,6.37
2019-05-15T04:21:51.596Z,3.30
2019-05-15T04:24:25.818Z,4.83
2019-05-15T04:27:00.024Z,5.80
2019-05-15T04:29:32.284Z,6.20
2019-05-15T04:32:05.961Z,7.27
2019-05-15T04:34:39.475Z,3.00
2019-05-15T04:37:09.796Z,5.87
2019-05-15T04:39:41.063Z,50.70
2019-05-15T04:42:12.902Z,52.23
2019-05-15T04:44:44.662Z,10.87
2019-05-15T04:47:19.006Z,21.60
2019-05-15T04:49:50.364Z,14.13
2019-05-15T04:52:22.796Z,10.33
2019-05-15T04:54:54.256Z,7.10
2019-05-15T04:57:29.044Z,5.53
2019-05-15T04:59:59.590Z,5.53
2019-05-15T05:02:32.400Z,8.10
2019-05-15T05:05:09.681Z,9.13
2019-05-15T05:07:39.547Z,8.57
2019-05-15T05:10:11.465Z,12.70
2019-05-15T05:12:43.112Z,9.80
2019-05-15T05:15:14.600Z,7.10
2019-05-15T05:17:45.972Z,8.63
2019-05-15T05:20:17.929Z,8.67
2019-05-15T05:22:49.507Z,9.60
2019-05-15T05:25:21.336Z,9.57
2019-05-15T05:27:52.817Z,8.33
2019-05-15T05:30:24.075Z,8.13
2019-05-15T05:32:57.920Z,12.57
2019-05-15T05:35:28.860Z,7.03
2019-05-15T05:38:00.628Z,8.20
2019-05-15T05:40:32.431Z,6.23
2019-05-15T05:43:03.841Z,10.90
2019-05-15T05:45:35.247Z,8.40
2019-05-15T05:48:08.824Z,6.97
2019-05-15T05:50:44.314Z,6.00
2019-05-15T05:53:15.125Z,5.80
2019-05-15T05:55:46.099Z,11.07
2019-05-15T05:58:19.653Z,5.73
2019-05-15T06:00:51.098Z,8.83
2019-05-15T06:03:22.343Z,6.00
2019-05-15T06:05:54.096Z,7.87
2019-05-15T06:08:25.029Z,4.97
2019-05-15T06:10:58.327Z,6.50
2019-05-15T06:13:29.250Z,7.37
2019-05-15T06:16:00.577Z,5.00
2019-05-15T06:18:32.416Z,5.00
2019-05-15T06:21:03.258Z,7.93
2019-05-15T06:23:36.217Z,11.60
2019-05-15T06:26:09.608Z,8.80
2019-05-15T06:28:41.017Z,10.43
2019-05-15T06:31:12.299Z,4.63
2019-05-15T06:33:44.710Z,9.53
2019-05-15T06:36:17.989Z,4.80
2019-05-15T06:38:49.623Z,3.83
2019-05-15T06:41:21.497Z,6.37
2019-05-15T06:43:53.158Z,8.70
2019-05-15T06:46:24.956Z,5.70
2019-05-15T06:48:58.123Z,5.40
2019-05-15T06:51:30.292Z,6.97
2019-05-15T06:54:03.951Z,7.07
2019-05-15T06:56:35.371Z,7.03
2019-05-15T06:59:08.667Z,10.60
2019-05-15T07:01:40.703Z,7.40
2019-05-15T07:04:12.424Z,7.07
2019-05-15T07:06:44.068Z,5.27
2019-05-15T07:09:17.958Z,8.97
2019-05-15T07:11:49.202Z,4.37
2019-05-15T07:14:20.624Z,6.00
2019-05-15T07:16:51.649Z,4.73
2019-05-15T07:19:22.607Z,8.47
2019-05-15T07:21:54.330Z,3.23
2019-05-15T07:24:25.269Z,7.83
2019-05-15T07:26:58.945Z,7.20
2019-05-15T07:29:29.474Z,7.10
2019-05-15T07:32:00.269Z,6.73
2019-05-15T07:34:33.787Z,7.30
2019-05-15T07:37:04.607Z,6.03
2019-05-15T07:39:35.362Z,9.07
2019-05-15T07:42:08.445Z,9.13
2019-05-15T07:44:39.101Z,7.43
2019-05-15T07:47:09.793Z,10.73
2019-05-15T07:49:41.507Z,7.97
2019-05-15T07:52:12.348Z,9.03
2019-05-15T07:54:43.181Z,10.53
2019-05-15T07:57:13.837Z,7.73
2019-05-15T07:59:44.535Z,11.97
2019-05-15T08:02:15.365Z,8.17
2019-05-15T08:04:48.270Z,7.53
2019-05-15T08:07:19.333Z,9.60
2019-05-15T08:09:50.876Z,7.40
2019-05-15T08:12:21.600Z,5.97
2019-05-15T08:14:52.571Z,7.27
2019-05-15T08:17:28.973Z,14.70
2019-05-15T08:20:02.591Z,13.83
2019-05-15T08:22:34.928Z,7.70
2019-05-15T08:25:11.296Z,13.30
2019-05-15T08:27:40.221Z,9.50
2019-05-15T08:30:14.050Z,10.70
2019-05-15T08:32:45.301Z,9.80
2019-05-15T08:35:19.179Z,8.63
2019-05-15T08:37:50.937Z,8.07
2019-05-15T08:40:21.927Z,8.10
2019-05-15T08:42:58.687Z,6.13
2019-05-15T08:45:25.298Z,5.67
2019-05-15T08:47:58.509Z,6.27
2019-05-15T08:50:28.864Z,9.83
2019-05-15T08:52:59.877Z,6.90
2019-05-15T08:55:30.978Z,8.83
2019-05-15T08:58:07.855Z,10.47
2019-05-15T09:00:34.585Z,6.43
2019-05-15T09:03:08.567Z,6.17
2019-05-15T09:05:39.417Z,6.63
2019-05-15T09:08:10.757Z,8.37
2019-05-15T09:10:41.773Z,7.90
2019-05-15T09:13:12.701Z,8.57
2019-05-15T09:15:44.121Z,11.30
2019-05-15T09:18:17.289Z,5.90
2019-05-15T09:20:49.499Z,7.43
2019-05-15T09:23:20.670Z,8.97
2019-05-15T09:25:51.618Z,6.93
2019-05-15T09:28:22.877Z,6.63
2019-05-15T09:30:53.529Z,5.80
2019-05-15T09:33:24.453Z,9.27
2019-05-15T09:35:54.984Z,6.33
2019-05-15T09:38:25.885Z,9.60
2019-05-15T09:40:58.540Z,6.37
2019-05-15T09:43:29.481Z,11.13
2019-05-15T09:46:00.190Z,20.40
2019-05-15T09:48:31.499Z,9.75
2019-05-15T09:51:02.177Z,16.73
2019-05-15T09:53:34.653Z,13.88
2019-05-15T09:56:08.079Z,17.03
2019-05-15T09:58:38.998Z,66.00
2019-05-15T10:01:09.779Z,57.13
2019-05-15T10:03:44.324Z,73.13
2019-05-15T10:06:13.798Z,48.23
2019-05-15T10:08:48.724Z,20.00
2019-05-15T10:11:19.737Z,19.53
2019-05-15T10:13:50.840Z,39.00
2019-05-15T10:16:21.737Z,19.80
2019-05-15T10:18:52.527Z,16.77
2019-05-15T10:21:28.705Z,15.10
2019-05-15T10:23:58.828Z,13.70
2019-05-15T10:26:28.651Z,19.80
2019-05-15T10:28:59.578Z,13.20
2019-05-15T10:31:30.458Z,13.77
2019-05-15T10:34:02.524Z,11.53
2019-05-15T10:36:33.498Z,12.30
2019-05-15T10:39:08.381Z,14.73
2019-05-15T10:41:39.401Z,20.00
2019-05-15T10:44:10.419Z,18.70
2019-05-15T10:46:41.270Z,21.87
2019-05-15T10:49:12.480Z,62.33
2019-05-15T10:51:43.240Z,55.13
2019-05-15T10:54:14.403Z,25.45
2019-05-15T10:56:45.994Z,19.15
2019-05-15T10:59:18.299Z,12.55
2019-05-15T11:01:49.780Z,14.10
2019-05-15T11:04:22.033Z,13.37
2019-05-15T11:06:53.066Z,11.77
2019-05-15T11:09:24.075Z,13.62
2019-05-15T11:11:54.985Z,21.63
2019-05-15T11:14:28.474Z,23.12
2019-05-15T11:16:59.006Z,14.15
2019-05-15T11:19:36.100Z,13.03
2019-05-15T11:22:03.433Z,13.15
2019-05-15T11:24:34.332Z,10.73
2019-05-15T11:27:05.558Z,12.03
2019-05-15T11:29:38.189Z,14.93
2019-05-15T11:32:08.968Z,10.53
2019-05-15T11:34:39.999Z,14.63
2019-05-15T11:37:11.319Z,15.43
2019-05-15T11:39:46.136Z,28.38
2019-05-15T11:42:14.827Z,20.68
2019-05-15T11:44:48.311Z,28.38
2019-05-15T11:47:18.557Z,25.50
2019-05-15T11:49:49.503Z,18.40
2019-05-15T11:52:20.564Z,21.10
2019-05-15T11:54:51.696Z,23.75
2019-05-15T11:57:37.338Z,18.23
2019-05-15T11:59:59.439Z,17.27
2019-05-15T12:02:30.845Z,18.62
2019-05-15T12:05:02.202Z,20.20
2019-05-15T12:07:33.277Z,10.68
2019-05-15T12:10:09.851Z,9.75
2019-05-15T12:12:38.912Z,16.10
2019-05-15T12:15:10.658Z,16.73
2019-05-15T12:17:42.085Z,9.55
2019-05-15T12:20:13.480Z,24.87
2019-05-15T12:22:44.341Z,18.17
2019-05-15T12:25:18.000Z,13.45
2019-05-15T12:27:49.239Z,10.28
2019-05-15T12:30:21.888Z,21.00
2019-05-15T12:32:52.737Z,14.30
2019-05-15T12:35:30.489Z,15.53
2019-05-15T12:38:04.385Z,15.05
2019-05-15T13:01:16.518Z,19.00
2019-05-15T13:03:35.585Z,12.13
2019-05-15T13:06:08.081Z,17.25
2019-05-15T13:08:48.899Z,14.50
2019-05-15T13:11:23.798Z,16.90
2019-05-15T13:13:54.618Z,19.70
2019-05-15T13:16:28.011Z,17.42
2019-05-15T13:18:58.789Z,16.30
2019-05-15T13:21:29.845Z,32.25
2019-05-15T13:24:01.868Z,17.50
2019-05-15T13:26:32.778Z,35.50
2019-05-15T13:29:03.551Z,17.70
2019-05-15T13:31:34.440Z,24.65
2019-05-15T13:34:07.962Z,18.87
2019-05-15T13:36:39.261Z,17.85
2019-05-15T13:39:10.377Z,15.95
2019-05-15T13:41:41.466Z,22.60
2019-05-15T13:44:12.525Z,13.03
2019-05-15T13:46:43.190Z,10.85
2019-05-15T13:49:14.059Z,14.38
2019-05-15T14:31:48.351Z,9.45
2019-05-15T15:37:08.231Z,97.75
2019-05-15T16:32:24.707Z,31.00
2019-05-15T16:34:55.778Z,13.43
2019-05-15T18:36:13.953Z,83.20
2019-05-15T18:38:44.983Z,32.30
2019-05-15T18:41:17.990Z,36.05
2019-05-15T18:43:48.739Z,53.20
2019-05-15T18:46:19.515Z,36.77
2019-05-15T18:48:50.256Z,49.05
2019-05-15T18:51:21.011Z,45.33
2019-05-15T18:53:51.862Z,29.30
2019-05-15T18:56:22.772Z,32.15
2019-05-15T18:58:54.056Z,23.27
2019-05-15T19:01:25.099Z,23.15
2019-05-15T19:03:58.167Z,16.42
2019-05-15T19:06:29.359Z,16.77
2019-05-15T19:09:00.832Z,18.10
2019-05-15T19:11:33.489Z,30.60
2019-05-15T19:14:04.682Z,25.75
2019-05-15T19:16:38.710Z,24.50
2019-05-15T19:19:09.675Z,25.60
2019-05-15T19:21:40.937Z,25.32
2019-05-15T19:24:11.791Z,18.90
2019-05-15T19:26:43.379Z,15.75
2019-05-15T19:29:17.821Z,15.90
2019-05-15T19:31:48.528Z,17.00
2019-05-15T19:34:19.630Z,14.07
2019-05-15T19:36:50.464Z,14.73
2019-05-15T19:39:23.282Z,14.43
2019-05-15T19:41:58.278Z,14.80
2019-05-15T19:44:29.693Z,12.20
2019-05-15T19:47:02.958Z,14.45
2019-05-15T19:49:33.919Z,14.23
2019-05-15T19:52:05.039Z,16.60
2019-05-15T19:54:38.222Z,13.72
2019-05-15T19:57:12.815Z,12.68
2019-05-15T19:59:44.725Z,12.70
2019-05-15T20:02:28.566Z,10.68
2019-05-15T20:05:18.422Z,10.43
2019-05-15T20:08:03.226Z,10.32
2019-05-15T20:10:50.070Z,12.55
2019-05-15T20:13:49.669Z,8.23
2019-05-15T20:16:28.593Z,6.60
2019-05-15T20:19:02.791Z,8.03
2019-05-15T20:21:34.454Z,7.70
2019-05-15T20:24:08.498Z,8.40
2019-05-15T20:26:40.061Z,10.60
2019-05-15T20:29:14.189Z,9.45
2019-05-15T20:31:48.205Z,9.45
2019-05-15T20:34:18.238Z,7.83
2019-05-15T20:36:49.437Z,6.92
2019-05-15T20:39:21.205Z,8.13
2019-05-15T20:42:08.864Z,5.90
2019-05-15T20:45:08.378Z,8.83
2019-05-15T20:47:43.677Z,8.15
2019-05-15T20:50:15.231Z,9.48
2019-05-15T20:52:48.833Z,6.05
2019-05-15T20:55:19.098Z,8.75
2019-05-15T20:58:01.424Z,6.70
2019-05-15T21:00:40.795Z,8.93
2019-05-15T21:03:23.190Z,8.55
2019-05-15T21:05:57.737Z,9.53
2019-05-15T21:08:31.795Z,7.87
2019-05-15T21:11:04.073Z,6.65
2019-05-15T21:13:35.396Z,7.10
2019-05-15T21:16:08.342Z,7.87
2019-05-15T21:18:41.548Z,10.07
2019-05-15T21:21:12.834Z,7.15
2019-05-15T21:23:44.138Z,5.90
2019-05-15T21:26:18.605Z,4.70
2019-05-15T21:28:49.619Z,4.70
2019-05-15T21:31:22.106Z,6.03
2019-05-15T21:33:53.432Z,6.03
2019-05-15T21:36:24.863Z,7.60
2019-05-15T21:38:58.516Z,6.65
2019-05-15T21:41:29.299Z,5.90
2019-05-15T21:44:01.061Z,7.03
2019-05-15T21:46:32.702Z,6.05
2019-05-15T21:49:04.031Z,6.03
2019-05-15T21:51:35.357Z,5.75
2019-05-15T21:54:06.705Z,6.67
2019-05-15T21:56:38.766Z,4.78
2019-05-15T21:59:09.848Z,6.87
2019-05-15T22:01:42.181Z,5.07
2019-05-15T22:04:13.839Z,5.75
2019-05-15T22:06:45.632Z,4.10
2019-05-15T22:09:18.705Z,3.93
2019-05-15T22:11:50.217Z,4.47
2019-05-15T22:14:21.605Z,5.47
2019-05-15T22:16:53.145Z,4.17
2019-05-15T22:19:25.054Z,5.57
2019-05-15T22:21:58.205Z,3.85
2019-05-15T22:24:29.182Z,4.00
2019-05-15T22:27:00.092Z,4.33
2019-05-15T22:29:31.544Z,6.20
2019-05-15T22:32:03.100Z,9.23
2019-05-15T22:34:34.437Z,5.00
2019-05-15T22:37:08.950Z,5.58
2019-05-15T22:39:39.702Z,3.27
2019-05-15T22:42:11.622Z,5.83
2019-05-15T22:44:42.807Z,3.35
2019-05-15T22:47:13.766Z,3.90
2019-05-15T22:49:45.063Z,2.93
2019-05-15T22:52:18.454Z,5.73
2019-05-15T22:54:49.150Z,4.62
2019-05-15T22:57:20.266Z,4.00
2019-05-15T22:59:51.322Z,3.75
2019-05-15T23:02:22.836Z,3.40
2019-05-15T23:04:54.419Z,3.80
2019-05-15T23:07:28.008Z,3.98
2019-05-15T23:09:59.192Z,3.83
2019-05-15T23:12:30.619Z,4.80
2019-05-15T23:15:02.300Z,4.57
2019-05-15T23:17:33.581Z,4.95
2019-05-15T23:20:08.667Z,3.02
2019-05-15T23:22:40.307Z,3.20
2019-05-15T23:25:12.035Z,3.77
2019-05-15T23:27:43.768Z,5.60
2019-05-15T23:30:14.933Z,2.92
2019-05-15T23:32:48.637Z,5.13
2019-05-15T23:35:19.258Z,6.03
2019-05-15T23:37:50.300Z,4.55
2019-05-15T23:40:21.582Z,4.10
2019-05-15T23:42:53.181Z,3.27
2019-05-15T23:45:24.581Z,3.83
2019-05-15T23:47:57.991Z,2.83
2019-05-15T23:50:29.047Z,4.78
2019-05-15T23:53:00.439Z,3.77
2019-05-15T23:55:32.013Z,5.13
2019-05-15T23:58:03.871Z,5.55
